sensor_id;sensor_type;location;lat;lon;timestamp;P1;durP1;ratioP1;P2;durP2;ratioP2
47713;SDS011;33475;46.614;13.888;2023-06-26T00:02:10;6.43;;;5.70;;
47713;SDS011;33475;46.614;13.888;2023-06-26T00:04:36;6.45;;;5.85;;
47713;SDS011;33475;46.614;13.888;2023-06-26T00:07:03;6.88;;;6.28;;
47713;SDS011;33475;46.614;13.888;2023-06-26T00:09:30;6.57;;;5.97;;
47713;SDS011;33475;46.614;13.888;2023-06-26T00:11:56;6.88;;;6.28;;
47713;SDS011;33475;46.614;13.888;2023-06-26T00:14:22;6.55;;;5.95;;
47713;SDS011;33475;46.614;13.888;2023-06-26T00:16:48;6.40;;;5.80;;
47713;SDS011;33475;46.614;13.888;2023-06-26T00:19:17;6.55;;;5.78;;
47713;SDS011;33475;46.614;13.888;2023-06-26T00:21:43;5.78;;;5.28;;
47713;SDS011;33475;46.614;13.888;2023-06-26T00:24:13;5.90;;;5.40;;
47713;SDS011;33475;46.614;13.888;2023-06-26T00:26:40;6.20;;;5.60;;
47713;SDS011;33475;46.614;13.888;2023-06-26T00:29:06;5.85;;;5.30;;
47713;SDS011;33475;46.614;13.888;2023-06-26T00:31:32;6.75;;;6.15;;
47713;SDS011;33475;46.614;13.888;2023-06-26T00:34:00;6.00;;;5.50;;
47713;SDS011;33475;46.614;13.888;2023-06-26T00:36:26;5.90;;;5.40;;
47713;SDS011;33475;46.614;13.888;2023-06-26T00:38:53;7.63;;;5.65;;
47713;SDS011;33475;46.614;13.888;2023-06-26T00:41:19;5.43;;;4.95;;
47713;SDS011;33475;46.614;13.888;2023-06-26T00:43:45;6.57;;;5.97;;
47713;SDS011;33475;46.614;13.888;2023-06-26T00:46:12;6.50;;;5.90;;
47713;SDS011;33475;46.614;13.888;2023-06-26T00:48:39;6.38;;;5.78;;
47713;SDS011;33475;46.614;13.888;2023-06-26T00:51:07;8.43;;;6.28;;
47713;SDS011;33475;46.614;13.888;2023-06-26T00:53:33;6.43;;;5.50;;
47713;SDS011;33475;46.614;13.888;2023-06-26T00:56:00;6.80;;;6.15;;
47713;SDS011;33475;46.614;13.888;2023-06-26T00:58:27;6.97;;;6.32;;
47713;SDS011;33475;46.614;13.888;2023-06-26T01:00:53;6.93;;;6.10;;
47713;SDS011;33475;46.614;13.888;2023-06-26T01:03:21;6.45;;;5.85;;
47713;SDS011;33475;46.614;13.888;2023-06-26T01:05:48;9.65;;;6.45;;
47713;SDS011;33475;46.614;13.888;2023-06-26T01:08:15;7.35;;;6.10;;
47713;SDS011;33475;46.614;13.888;2023-06-26T01:10:41;6.32;;;5.72;;
47713;SDS011;33475;46.614;13.888;2023-06-26T01:13:07;6.85;;;6.18;;
47713;SDS011;33475;46.614;13.888;2023-06-26T01:15:34;6.97;;;6.38;;
47713;SDS011;33475;46.614;13.888;2023-06-26T01:18:01;6.80;;;5.70;;
47713;SDS011;33475;46.614;13.888;2023-06-26T01:20:31;7.72;;;6.68;;
47713;SDS011;33475;46.614;13.888;2023-06-26T01:23:14;6.97;;;5.85;;
47713;SDS011;33475;46.614;13.888;2023-06-26T01:28:08;7.00;;;6.40;;
47713;SDS011;33475;46.614;13.888;2023-06-26T01:30:42;7.63;;;6.00;;
47713;SDS011;33475;46.614;13.888;2023-06-26T01:33:08;6.32;;;5.75;;
47713;SDS011;33475;46.614;13.888;2023-06-26T01:35:35;8.93;;;6.90;;
47713;SDS011;33475;46.614;13.888;2023-06-26T01:38:15;6.10;;;5.60;;
47713;SDS011;33475;46.614;13.888;2023-06-26T01:40:41;7.97;;;6.10;;
47713;SDS011;33475;46.614;13.888;2023-06-26T01:43:11;6.07;;;5.47;;
47713;SDS011;33475;46.614;13.888;2023-06-26T01:45:39;7.57;;;6.10;;
47713;SDS011;33475;46.614;13.888;2023-06-26T01:48:06;7.78;;;5.97;;
47713;SDS011;33475;46.614;13.888;2023-06-26T01:50:32;6.38;;;5.68;;
47713;SDS011;33475;46.614;13.888;2023-06-26T01:53:04;9.15;;;5.78;;
47713;SDS011;33475;46.614;13.888;2023-06-26T01:58:18;7.97;;;5.95;;
47713;SDS011;33475;46.614;13.888;2023-06-26T02:00:45;7.13;;;6.15;;
47713;SDS011;33475;46.614;13.888;2023-06-26T02:03:12;7.38;;;6.68;;
47713;SDS011;33475;46.614;13.888;2023-06-26T02:05:38;6.25;;;5.65;;
47713;SDS011;33475;46.614;13.888;2023-06-26T02:08:04;6.93;;;6.32;;
47713;SDS011;33475;46.614;13.888;2023-06-26T02:10:30;8.40;;;6.63;;
47713;SDS011;33475;46.614;13.888;2023-06-26T02:12:56;7.25;;;6.28;;
47713;SDS011;33475;46.614;13.888;2023-06-26T02:15:23;7.95;;;6.82;;
47713;SDS011;33475;46.614;13.888;2023-06-26T02:17:49;13.27;;;7.35;;
47713;SDS011;33475;46.614;13.888;2023-06-26T02:20:15;8.07;;;7.38;;
47713;SDS011;33475;46.614;13.888;2023-06-26T02:22:41;8.07;;;6.78;;
47713;SDS011;33475;46.614;13.888;2023-06-26T02:25:08;9.18;;;6.75;;
47713;SDS011;33475;46.614;13.888;2023-06-26T02:27:35;10.57;;;7.53;;
47713;SDS011;33475;46.614;13.888;2023-06-26T02:30:01;8.43;;;7.38;;
47713;SDS011;33475;46.614;13.888;2023-06-26T02:32:28;9.88;;;8.88;;
47713;SDS011;33475;46.614;13.888;2023-06-26T02:34:54;9.40;;;8.10;;
47713;SDS011;33475;46.614;13.888;2023-06-26T02:37:20;7.70;;;6.88;;
47713;SDS011;33475;46.614;13.888;2023-06-26T02:39:46;9.45;;;7.38;;
47713;SDS011;33475;46.614;13.888;2023-06-26T02:42:12;9.43;;;8.45;;
47713;SDS011;33475;46.614;13.888;2023-06-26T02:44:38;8.88;;;7.07;;
47713;SDS011;33475;46.614;13.888;2023-06-26T02:47:05;9.30;;;7.82;;
47713;SDS011;33475;46.614;13.888;2023-06-26T02:49:31;8.55;;;7.65;;
47713;SDS011;33475;46.614;13.888;2023-06-26T02:51:57;10.15;;;8.45;;
47713;SDS011;33475;46.614;13.888;2023-06-26T02:54:23;9.40;;;7.32;;
47713;SDS011;33475;46.614;13.888;2023-06-26T02:56:49;9.40;;;7.10;;
47713;SDS011;33475;46.614;13.888;2023-06-26T02:59:15;8.13;;;7.32;;
47713;SDS011;33475;46.614;13.888;2023-06-26T03:01:46;7.55;;;6.85;;
47713;SDS011;33475;46.614;13.888;2023-06-26T03:04:12;7.97;;;7.20;;
47713;SDS011;33475;46.614;13.888;2023-06-26T03:06:40;9.07;;;8.07;;
47713;SDS011;33475;46.614;13.888;2023-06-26T03:09:06;14.00;;;9.10;;
47713;SDS011;33475;46.614;13.888;2023-06-26T03:11:32;13.25;;;9.38;;
47713;SDS011;33475;46.614;13.888;2023-06-26T03:13:58;9.90;;;8.23;;
47713;SDS011;33475;46.614;13.888;2023-06-26T03:16:24;9.55;;;8.27;;
47713;SDS011;33475;46.614;13.888;2023-06-26T03:18:50;7.53;;;6.82;;
47713;SDS011;33475;46.614;13.888;2023-06-26T03:21:17;10.82;;;7.45;;
47713;SDS011;33475;46.614;13.888;2023-06-26T03:23:43;8.13;;;7.35;;
47713;SDS011;33475;46.614;13.888;2023-06-26T03:26:09;8.77;;;7.40;;
47713;SDS011;33475;46.614;13.888;2023-06-26T03:28:35;8.43;;;6.53;;
47713;SDS011;33475;46.614;13.888;2023-06-26T03:31:01;8.85;;;6.68;;
47713;SDS011;33475;46.614;13.888;2023-06-26T03:33:27;14.88;;;7.18;;
47713;SDS011;33475;46.614;13.888;2023-06-26T03:35:54;7.05;;;6.38;;
47713;SDS011;33475;46.614;13.888;2023-06-26T03:38:21;8.18;;;7.18;;
47713;SDS011;33475;46.614;13.888;2023-06-26T03:40:47;12.50;;;6.63;;
47713;SDS011;33475;46.614;13.888;2023-06-26T03:43:13;11.60;;;7.43;;
47713;SDS011;33475;46.614;13.888;2023-06-26T03:45:39;7.00;;;6.38;;
47713;SDS011;33475;46.614;13.888;2023-06-26T03:48:05;7.68;;;6.90;;
47713;SDS011;33475;46.614;13.888;2023-06-26T03:50:33;8.07;;;7.28;;
47713;SDS011;33475;46.614;13.888;2023-06-26T03:52:59;10.07;;;6.63;;
47713;SDS011;33475;46.614;13.888;2023-06-26T03:55:25;10.48;;;7.13;;
47713;SDS011;33475;46.614;13.888;2023-06-26T03:57:51;7.32;;;6.45;;
47713;SDS011;33475;46.614;13.888;2023-06-26T04:00:18;8.85;;;7.35;;
47713;SDS011;33475;46.614;13.888;2023-06-26T04:02:44;11.15;;;6.50;;
47713;SDS011;33475;46.614;13.888;2023-06-26T04:05:10;10.07;;;6.72;;
47713;SDS011;33475;46.614;13.888;2023-06-26T04:07:37;8.07;;;6.57;;
47713;SDS011;33475;46.614;13.888;2023-06-26T04:10:03;9.95;;;7.07;;
47713;SDS011;33475;46.614;13.888;2023-06-26T04:12:29;8.02;;;6.60;;
47713;SDS011;33475;46.614;13.888;2023-06-26T04:14:55;11.43;;;6.10;;
47713;SDS011;33475;46.614;13.888;2023-06-26T04:17:22;8.38;;;7.38;;
47713;SDS011;33475;46.614;13.888;2023-06-26T04:19:48;7.93;;;6.53;;
47713;SDS011;33475;46.614;13.888;2023-06-26T04:22:14;8.68;;;6.40;;
47713;SDS011;33475;46.614;13.888;2023-06-26T04:24:40;6.97;;;6.32;;
47713;SDS011;33475;46.614;13.888;2023-06-26T04:27:06;8.00;;;6.35;;
47713;SDS011;33475;46.614;13.888;2023-06-26T04:29:32;10.02;;;7.18;;
47713;SDS011;33475;46.614;13.888;2023-06-26T04:31:58;14.38;;;7.03;;
47713;SDS011;33475;46.614;13.888;2023-06-26T04:34:25;8.75;;;6.20;;
47713;SDS011;33475;46.614;13.888;2023-06-26T04:36:51;7.07;;;6.43;;
47713;SDS011;33475;46.614;13.888;2023-06-26T04:39:17;10.30;;;7.22;;
47713;SDS011;33475;46.614;13.888;2023-06-26T04:41:44;7.60;;;6.90;;
47713;SDS011;33475;46.614;13.888;2023-06-26T04:44:11;7.78;;;7.05;;
47713;SDS011;33475;46.614;13.888;2023-06-26T04:46:37;8.75;;;7.53;;
47713;SDS011;33475;46.614;13.888;2023-06-26T04:49:09;7.68;;;6.70;;
47713;SDS011;33475;46.614;13.888;2023-06-26T04:51:35;8.70;;;6.68;;
47713;SDS011;33475;46.614;13.888;2023-06-26T04:54:09;7.63;;;6.90;;
47713;SDS011;33475;46.614;13.888;2023-06-26T04:56:35;7.00;;;6.32;;
47713;SDS011;33475;46.614;13.888;2023-06-26T04:59:02;8.18;;;7.18;;
47713;SDS011;33475;46.614;13.888;2023-06-26T05:01:29;7.53;;;6.40;;
47713;SDS011;33475;46.614;13.888;2023-06-26T05:03:57;9.48;;;7.75;;
47713;SDS011;33475;46.614;13.888;2023-06-26T05:06:23;6.75;;;6.10;;
47713;SDS011;33475;46.614;13.888;2023-06-26T05:08:49;7.30;;;6.60;;
47713;SDS011;33475;46.614;13.888;2023-06-26T05:11:16;7.93;;;7.13;;
47713;SDS011;33475;46.614;13.888;2023-06-26T05:13:42;6.70;;;6.10;;
47713;SDS011;33475;46.614;13.888;2023-06-26T05:16:09;11.32;;;6.20;;
47713;SDS011;33475;46.614;13.888;2023-06-26T05:18:35;7.60;;;6.72;;
47713;SDS011;33475;46.614;13.888;2023-06-26T05:21:02;11.13;;;6.10;;
47713;SDS011;33475;46.614;13.888;2023-06-26T05:23:30;8.38;;;6.20;;
47713;SDS011;33475;46.614;13.888;2023-06-26T05:25:57;9.55;;;5.43;;
47713;SDS011;33475;46.614;13.888;2023-06-26T05:28:23;6.00;;;5.40;;
47713;SDS011;33475;46.614;13.888;2023-06-26T05:30:50;7.65;;;5.75;;
47713;SDS011;33475;46.614;13.888;2023-06-26T05:33:17;14.02;;;6.28;;
47713;SDS011;33475;46.614;13.888;2023-06-26T05:35:45;6.13;;;5.57;;
47713;SDS011;33475;46.614;13.888;2023-06-26T05:38:12;7.28;;;5.80;;
47713;SDS011;33475;46.614;13.888;2023-06-26T05:40:38;6.78;;;6.07;;
47713;SDS011;33475;46.614;13.888;2023-06-26T05:43:06;6.00;;;5.38;;
47713;SDS011;33475;46.614;13.888;2023-06-26T05:45:32;7.70;;;5.25;;
47713;SDS011;33475;46.614;13.888;2023-06-26T05:47:59;8.82;;;5.13;;
47713;SDS011;33475;46.614;13.888;2023-06-26T05:50:25;6.15;;;5.55;;
47713;SDS011;33475;46.614;13.888;2023-06-26T05:52:52;5.30;;;4.82;;
47713;SDS011;33475;46.614;13.888;2023-06-26T05:55:18;5.45;;;4.95;;
47713;SDS011;33475;46.614;13.888;2023-06-26T05:57:45;6.93;;;5.40;;
47713;SDS011;33475;46.614;13.888;2023-06-26T06:00:12;5.70;;;5.10;;
47713;SDS011;33475;46.614;13.888;2023-06-26T06:02:38;5.28;;;4.78;;
47713;SDS011;33475;46.614;13.888;2023-06-26T06:05:05;8.23;;;5.55;;
47713;SDS011;33475;46.614;13.888;2023-06-26T06:07:34;5.40;;;4.90;;
47713;SDS011;33475;46.614;13.888;2023-06-26T06:10:01;5.93;;;4.80;;
47713;SDS011;33475;46.614;13.888;2023-06-26T06:12:28;7.68;;;6.32;;
47713;SDS011;33475;46.614;13.888;2023-06-26T06:14:55;8.10;;;5.05;;
47713;SDS011;33475;46.614;13.888;2023-06-26T06:17:21;7.45;;;5.07;;
47713;SDS011;33475;46.614;13.888;2023-06-26T06:19:48;9.23;;;5.78;;
47713;SDS011;33475;46.614;13.888;2023-06-26T06:22:14;8.98;;;4.97;;
47713;SDS011;33475;46.614;13.888;2023-06-26T06:24:41;5.93;;;5.30;;
47713;SDS011;33475;46.614;13.888;2023-06-26T06:27:09;4.93;;;4.53;;
47713;SDS011;33475;46.614;13.888;2023-06-26T06:29:35;5.68;;;5.15;;
47713;SDS011;33475;46.614;13.888;2023-06-26T06:32:01;6.57;;;5.60;;
47713;SDS011;33475;46.614;13.888;2023-06-26T06:34:27;6.18;;;4.95;;
47713;SDS011;33475;46.614;13.888;2023-06-26T06:36:53;5.28;;;4.82;;
47713;SDS011;33475;46.614;13.888;2023-06-26T06:39:19;7.30;;;5.03;;
47713;SDS011;33475;46.614;13.888;2023-06-26T06:41:45;8.65;;;5.40;;
47713;SDS011;33475;46.614;13.888;2023-06-26T06:44:11;11.13;;;5.68;;
47713;SDS011;33475;46.614;13.888;2023-06-26T06:46:37;6.20;;;4.70;;
47713;SDS011;33475;46.614;13.888;2023-06-26T06:49:04;6.60;;;5.00;;
47713;SDS011;33475;46.614;13.888;2023-06-26T06:51:30;8.55;;;4.85;;
47713;SDS011;33475;46.614;13.888;2023-06-26T06:53:56;8.93;;;5.40;;
47713;SDS011;33475;46.614;13.888;2023-06-26T06:56:22;7.40;;;4.95;;
47713;SDS011;33475;46.614;13.888;2023-06-26T06:58:49;8.27;;;5.25;;
47713;SDS011;33475;46.614;13.888;2023-06-26T07:01:15;7.63;;;5.28;;
47713;SDS011;33475;46.614;13.888;2023-06-26T07:03:41;9.13;;;5.55;;
47713;SDS011;33475;46.614;13.888;2023-06-26T07:06:07;5.93;;;5.32;;
47713;SDS011;33475;46.614;13.888;2023-06-26T07:08:33;5.90;;;5.30;;
47713;SDS011;33475;46.614;13.888;2023-06-26T07:11:00;6.47;;;5.55;;
47713;SDS011;33475;46.614;13.888;2023-06-26T07:13:26;7.63;;;5.70;;
47713;SDS011;33475;46.614;13.888;2023-06-26T07:15:52;6.38;;;5.78;;
47713;SDS011;33475;46.614;13.888;2023-06-26T07:18:18;7.93;;;4.88;;
47713;SDS011;33475;46.614;13.888;2023-06-26T07:20:44;5.63;;;4.88;;
47713;SDS011;33475;46.614;13.888;2023-06-26T07:23:11;5.75;;;5.15;;
47713;SDS011;33475;46.614;13.888;2023-06-26T07:25:37;5.80;;;5.15;;
47713;SDS011;33475;46.614;13.888;2023-06-26T07:28:05;5.47;;;4.93;;
47713;SDS011;33475;46.614;13.888;2023-06-26T07:30:35;5.20;;;4.70;;
47713;SDS011;33475;46.614;13.888;2023-06-26T07:33:02;5.60;;;5.10;;
47713;SDS011;33475;46.614;13.888;2023-06-26T07:35:28;6.47;;;5.00;;
47713;SDS011;33475;46.614;13.888;2023-06-26T07:37:54;5.70;;;5.20;;
47713;SDS011;33475;46.614;13.888;2023-06-26T07:40:20;5.70;;;5.10;;
47713;SDS011;33475;46.614;13.888;2023-06-26T07:42:46;7.63;;;6.68;;
47713;SDS011;33475;46.614;13.888;2023-06-26T07:45:13;6.68;;;5.20;;
47713;SDS011;33475;46.614;13.888;2023-06-26T07:47:39;5.95;;;5.45;;
47713;SDS011;33475;46.614;13.888;2023-06-26T07:50:06;5.88;;;5.28;;
47713;SDS011;33475;46.614;13.888;2023-06-26T07:52:32;5.53;;;5.03;;
47713;SDS011;33475;46.614;13.888;2023-06-26T07:54:58;5.60;;;5.10;;
47713;SDS011;33475;46.614;13.888;2023-06-26T07:57:24;7.53;;;5.20;;
47713;SDS011;33475;46.614;13.888;2023-06-26T07:59:50;5.43;;;4.90;;
47713;SDS011;33475;46.614;13.888;2023-06-26T08:02:16;5.82;;;4.80;;
47713;SDS011;33475;46.614;13.888;2023-06-26T08:04:43;5.95;;;5.35;;
47713;SDS011;33475;46.614;13.888;2023-06-26T08:07:09;6.03;;;5.47;;
47713;SDS011;33475;46.614;13.888;2023-06-26T08:09:35;6.18;;;5.50;;
47713;SDS011;33475;46.614;13.888;2023-06-26T08:12:01;7.22;;;5.53;;
47713;SDS011;33475;46.614;13.888;2023-06-26T08:14:28;5.90;;;5.30;;
47713;SDS011;33475;46.614;13.888;2023-06-26T08:16:54;5.72;;;5.25;;
47713;SDS011;33475;46.614;13.888;2023-06-26T08:19:20;6.93;;;5.35;;
47713;SDS011;33475;46.614;13.888;2023-06-26T08:21:47;5.55;;;5.05;;
47713;SDS011;33475;46.614;13.888;2023-06-26T08:24:13;5.43;;;5.03;;
47713;SDS011;33475;46.614;13.888;2023-06-26T08:26:41;6.93;;;5.57;;
47713;SDS011;33475;46.614;13.888;2023-06-26T08:29:08;4.70;;;4.38;;
47713;SDS011;33475;46.614;13.888;2023-06-26T08:31:34;5.07;;;4.68;;
47713;SDS011;33475;46.614;13.888;2023-06-26T08:34:01;5.53;;;5.13;;
47713;SDS011;33475;46.614;13.888;2023-06-26T08:36:28;5.57;;;5.18;;
47713;SDS011;33475;46.614;13.888;2023-06-26T08:38:54;5.43;;;4.93;;
47713;SDS011;33475;46.614;13.888;2023-06-26T08:41:20;6.35;;;4.88;;
47713;SDS011;33475;46.614;13.888;2023-06-26T08:43:47;5.03;;;4.65;;
47713;SDS011;33475;46.614;13.888;2023-06-26T08:46:15;5.35;;;4.85;;
47713;SDS011;33475;46.614;13.888;2023-06-26T08:48:41;5.28;;;4.75;;
47713;SDS011;33475;46.614;13.888;2023-06-26T08:51:15;6.47;;;4.25;;
47713;SDS011;33475;46.614;13.888;2023-06-26T08:56:17;5.20;;;4.75;;
47713;SDS011;33475;46.614;13.888;2023-06-26T08:58:46;8.48;;;4.93;;
47713;SDS011;33475;46.614;13.888;2023-06-26T09:01:12;5.95;;;4.78;;
47713;SDS011;33475;46.614;13.888;2023-06-26T09:03:38;4.97;;;4.57;;
47713;SDS011;33475;46.614;13.888;2023-06-26T09:06:06;4.78;;;4.28;;
47713;SDS011;33475;46.614;13.888;2023-06-26T09:08:32;6.22;;;4.70;;
47713;SDS011;33475;46.614;13.888;2023-06-26T09:10:58;5.13;;;4.72;;
47713;SDS011;33475;46.614;13.888;2023-06-26T09:13:25;6.78;;;5.53;;
47713;SDS011;33475;46.614;13.888;2023-06-26T09:15:52;7.75;;;5.03;;
47713;SDS011;33475;46.614;13.888;2023-06-26T09:18:20;4.88;;;4.15;;
47713;SDS011;33475;46.614;13.888;2023-06-26T09:20:47;5.53;;;5.03;;
47713;SDS011;33475;46.614;13.888;2023-06-26T09:23:13;5.35;;;4.85;;
47713;SDS011;33475;46.614;13.888;2023-06-26T09:25:39;5.35;;;4.85;;
47713;SDS011;33475;46.614;13.888;2023-06-26T09:28:06;6.70;;;5.32;;
47713;SDS011;33475;46.614;13.888;2023-06-26T09:30:32;5.25;;;4.70;;
47713;SDS011;33475;46.614;13.888;2023-06-26T09:33:14;4.53;;;4.15;;
47713;SDS011;33475;46.614;13.888;2023-06-26T09:35:41;5.03;;;4.63;;
47713;SDS011;33475;46.614;13.888;2023-06-26T09:38:07;6.05;;;4.57;;
47713;SDS011;33475;46.614;13.888;2023-06-26T09:40:33;4.72;;;4.32;;
47713;SDS011;33475;46.614;13.888;2023-06-26T09:43:09;5.00;;;4.60;;
47713;SDS011;33475;46.614;13.888;2023-06-26T09:45:39;5.13;;;4.70;;
47713;SDS011;33475;46.614;13.888;2023-06-26T09:48:05;5.70;;;5.13;;
47713;SDS011;33475;46.614;13.888;2023-06-26T09:50:36;7.82;;;4.80;;
47713;SDS011;33475;46.614;13.888;2023-06-26T09:53:07;5.30;;;4.90;;
47713;SDS011;33475;46.614;13.888;2023-06-26T09:55:35;8.02;;;5.00;;
47713;SDS011;33475;46.614;13.888;2023-06-26T09:58:02;5.05;;;4.53;;
47713;SDS011;33475;46.614;13.888;2023-06-26T10:00:30;5.40;;;4.88;;
47713;SDS011;33475;46.614;13.888;2023-06-26T10:02:57;6.05;;;5.10;;
47713;SDS011;33475;46.614;13.888;2023-06-26T10:05:23;5.82;;;5.18;;
47713;SDS011;33475;46.614;13.888;2023-06-26T10:07:49;5.82;;;5.32;;
47713;SDS011;33475;46.614;13.888;2023-06-26T10:10:16;4.93;;;4.47;;
47713;SDS011;33475;46.614;13.888;2023-06-26T10:12:43;5.50;;;4.30;;
47713;SDS011;33475;46.614;13.888;2023-06-26T10:15:09;4.65;;;4.20;;
47713;SDS011;33475;46.614;13.888;2023-06-26T10:17:39;4.90;;;4.50;;
47713;SDS011;33475;46.614;13.888;2023-06-26T10:20:06;10.13;;;5.70;;
47713;SDS011;33475;46.614;13.888;2023-06-26T10:22:36;4.70;;;4.30;;
47713;SDS011;33475;46.614;13.888;2023-06-26T10:25:03;6.05;;;3.83;;
47713;SDS011;33475;46.614;13.888;2023-06-26T10:27:34;4.55;;;4.07;;
47713;SDS011;33475;46.614;13.888;2023-06-26T10:30:03;7.25;;;4.70;;
47713;SDS011;33475;46.614;13.888;2023-06-26T10:32:31;3.95;;;3.65;;
47713;SDS011;33475;46.614;13.888;2023-06-26T10:34:58;5.65;;;4.88;;
47713;SDS011;33475;46.614;13.888;2023-06-26T10:38:01;4.18;;;3.88;;
47713;SDS011;33475;46.614;13.888;2023-06-26T10:40:21;4.75;;;4.35;;
47713;SDS011;33475;46.614;13.888;2023-06-26T10:42:48;10.95;;;4.60;;
47713;SDS011;33475;46.614;13.888;2023-06-26T10:45:23;5.05;;;4.65;;
47713;SDS011;33475;46.614;13.888;2023-06-26T10:47:54;6.20;;;3.75;;
47713;SDS011;33475;46.614;13.888;2023-06-26T10:50:25;4.75;;;4.35;;
47713;SDS011;33475;46.614;13.888;2023-06-26T10:53:14;5.47;;;4.38;;
47713;SDS011;33475;46.614;13.888;2023-06-26T11:03:39;6.65;;;4.25;;
47713;SDS011;33475;46.614;13.888;2023-06-26T11:06:09;4.50;;;4.20;;
47713;SDS011;33475;46.614;13.888;2023-06-26T11:11:12;3.97;;;3.67;;
47713;SDS011;33475;46.614;13.888;2023-06-26T11:13:39;3.92;;;3.63;;
47713;SDS011;33475;46.614;13.888;2023-06-26T11:16:05;4.57;;;4.25;;
47713;SDS011;33475;46.614;13.888;2023-06-26T11:18:32;3.85;;;3.55;;
47713;SDS011;33475;46.614;13.888;2023-06-26T11:21:05;4.72;;;4.13;;
47713;SDS011;33475;46.614;13.888;2023-06-26T11:23:31;6.07;;;4.07;;
47713;SDS011;33475;46.614;13.888;2023-06-26T11:26:12;8.82;;;4.45;;
47713;SDS011;33475;46.614;13.888;2023-06-26T11:28:38;4.18;;;3.88;;
47713;SDS011;33475;46.614;13.888;2023-06-26T11:31:05;4.60;;;4.20;;
47713;SDS011;33475;46.614;13.888;2023-06-26T11:33:31;4.47;;;4.07;;
47713;SDS011;33475;46.614;13.888;2023-06-26T11:36:07;4.30;;;3.90;;
47713;SDS011;33475;46.614;13.888;2023-06-26T11:38:37;4.10;;;3.80;;
47713;SDS011;33475;46.614;13.888;2023-06-26T11:41:03;5.95;;;3.78;;
47713;SDS011;33475;46.614;13.888;2023-06-26T11:43:33;11.10;;;4.15;;
47713;SDS011;33475;46.614;13.888;2023-06-26T11:46:00;4.43;;;4.05;;
47713;SDS011;33475;46.614;13.888;2023-06-26T11:48:27;4.60;;;4.20;;
47713;SDS011;33475;46.614;13.888;2023-06-26T11:50:54;4.80;;;4.40;;
47713;SDS011;33475;46.614;13.888;2023-06-26T11:53:21;3.83;;;3.53;;
47713;SDS011;33475;46.614;13.888;2023-06-26T11:55:48;4.80;;;3.33;;
47713;SDS011;33475;46.614;13.888;2023-06-26T11:58:15;4.47;;;4.07;;
47713;SDS011;33475;46.614;13.888;2023-06-26T12:00:41;3.83;;;3.53;;
47713;SDS011;33475;46.614;13.888;2023-06-26T12:03:11;3.90;;;3.47;;
47713;SDS011;33475;46.614;13.888;2023-06-26T12:05:38;3.28;;;3.08;;
47713;SDS011;33475;46.614;13.888;2023-06-26T12:08:05;5.72;;;3.17;;
47713;SDS011;33475;46.614;13.888;2023-06-26T12:10:32;3.60;;;3.30;;
47713;SDS011;33475;46.614;13.888;2023-06-26T12:12:59;3.42;;;3.20;;
47713;SDS011;33475;46.614;13.888;2023-06-26T12:15:26;3.25;;;3.05;;
47713;SDS011;33475;46.614;13.888;2023-06-26T12:17:54;4.68;;;3.70;;
47713;SDS011;33475;46.614;13.888;2023-06-26T12:20:21;6.18;;;3.28;;
47713;SDS011;33475;46.614;13.888;2023-06-26T12:22:47;3.85;;;3.55;;
47713;SDS011;33475;46.614;13.888;2023-06-26T12:25:14;3.05;;;2.85;;
47713;SDS011;33475;46.614;13.888;2023-06-26T12:27:44;3.78;;;2.70;;
47713;SDS011;33475;46.614;13.888;2023-06-26T12:30:11;3.03;;;2.83;;
47713;SDS011;33475;46.614;13.888;2023-06-26T12:32:38;2.83;;;2.63;;
47713;SDS011;33475;46.614;13.888;2023-06-26T12:35:05;3.67;;;2.70;;
47713;SDS011;33475;46.614;13.888;2023-06-26T12:37:36;3.28;;;2.70;;
47713;SDS011;33475;46.614;13.888;2023-06-26T12:40:15;2.88;;;2.67;;
47713;SDS011;33475;46.614;13.888;2023-06-26T12:42:43;6.50;;;3.10;;
47713;SDS011;33475;46.614;13.888;2023-06-26T12:45:10;6.07;;;2.80;;
47713;SDS011;33475;46.614;13.888;2023-06-26T12:47:37;2.72;;;2.53;;
47713;SDS011;33475;46.614;13.888;2023-06-26T12:50:04;2.85;;;2.65;;
47713;SDS011;33475;46.614;13.888;2023-06-26T12:52:31;2.95;;;2.75;;
47713;SDS011;33475;46.614;13.888;2023-06-26T12:54:57;3.22;;;3.00;;
47713;SDS011;33475;46.614;13.888;2023-06-26T12:57:24;2.80;;;2.60;;
47713;SDS011;33475;46.614;13.888;2023-06-26T12:59:51;2.88;;;2.60;;
47713;SDS011;33475;46.614;13.888;2023-06-26T13:02:18;3.03;;;2.72;;
47713;SDS011;33475;46.614;13.888;2023-06-26T13:04:45;2.60;;;2.40;;
47713;SDS011;33475;46.614;13.888;2023-06-26T13:07:11;2.80;;;2.60;;
47713;SDS011;33475;46.614;13.888;2023-06-26T13:09:38;2.60;;;2.42;;
47713;SDS011;33475;46.614;13.888;2023-06-26T13:12:06;2.30;;;2.20;;
47713;SDS011;33475;46.614;13.888;2023-06-26T13:14:33;2.90;;;2.70;;
47713;SDS011;33475;46.614;13.888;2023-06-26T13:17:02;2.60;;;2.40;;
47713;SDS011;33475;46.614;13.888;2023-06-26T13:19:29;2.90;;;2.70;;
47713;SDS011;33475;46.614;13.888;2023-06-26T13:21:56;4.78;;;2.63;;
47713;SDS011;33475;46.614;13.888;2023-06-26T13:24:22;5.43;;;2.47;;
47713;SDS011;33475;46.614;13.888;2023-06-26T13:26:49;2.30;;;2.20;;
47713;SDS011;33475;46.614;13.888;2023-06-26T13:29:15;2.78;;;2.58;;
47713;SDS011;33475;46.614;13.888;2023-06-26T13:31:42;2.97;;;2.78;;
47713;SDS011;33475;46.614;13.888;2023-06-26T13:34:09;2.75;;;2.55;;
47713;SDS011;33475;46.614;13.888;2023-06-26T13:36:46;2.70;;;2.50;;
47713;SDS011;33475;46.614;13.888;2023-06-26T13:39:12;3.22;;;2.42;;
47713;SDS011;33475;46.614;13.888;2023-06-26T13:41:39;4.32;;;2.60;;
47713;SDS011;33475;46.614;13.888;2023-06-26T13:44:05;3.20;;;3.00;;
47713;SDS011;33475;46.614;13.888;2023-06-26T13:46:32;2.95;;;2.75;;
47713;SDS011;33475;46.614;13.888;2023-06-26T13:48:58;2.90;;;2.70;;
47713;SDS011;33475;46.614;13.888;2023-06-26T13:51:25;2.80;;;2.60;;
47713;SDS011;33475;46.614;13.888;2023-06-26T13:53:52;2.70;;;2.50;;
47713;SDS011;33475;46.614;13.888;2023-06-26T13:56:19;2.90;;;2.70;;
47713;SDS011;33475;46.614;13.888;2023-06-26T13:58:47;2.80;;;2.60;;
47713;SDS011;33475;46.614;13.888;2023-06-26T14:01:14;3.05;;;2.50;;
47713;SDS011;33475;46.614;13.888;2023-06-26T14:03:41;3.28;;;2.58;;
47713;SDS011;33475;46.614;13.888;2023-06-26T14:06:08;2.88;;;2.67;;
47713;SDS011;33475;46.614;13.888;2023-06-26T14:08:34;2.70;;;2.50;;
47713;SDS011;33475;46.614;13.888;2023-06-26T14:11:00;3.20;;;2.30;;
47713;SDS011;33475;46.614;13.888;2023-06-26T14:13:27;4.40;;;2.70;;
47713;SDS011;33475;46.614;13.888;2023-06-26T14:15:53;2.67;;;2.50;;
47713;SDS011;33475;46.614;13.888;2023-06-26T14:18:21;3.53;;;3.22;;
47713;SDS011;33475;46.614;13.888;2023-06-26T14:20:48;2.97;;;2.78;;
47713;SDS011;33475;46.614;13.888;2023-06-26T14:23:15;2.90;;;2.70;;
47713;SDS011;33475;46.614;13.888;2023-06-26T14:25:41;3.63;;;3.03;;
47713;SDS011;33475;46.614;13.888;2023-06-26T14:28:07;3.78;;;2.67;;
47713;SDS011;33475;46.614;13.888;2023-06-26T14:30:34;3.53;;;3.22;;
47713;SDS011;33475;46.614;13.888;2023-06-26T14:33:01;3.30;;;2.75;;
47713;SDS011;33475;46.614;13.888;2023-06-26T14:35:28;4.72;;;2.97;;
47713;SDS011;33475;46.614;13.888;2023-06-26T14:37:54;3.17;;;2.97;;
47713;SDS011;33475;46.614;13.888;2023-06-26T14:40:20;3.75;;;3.20;;
47713;SDS011;33475;46.614;13.888;2023-06-26T14:42:47;3.10;;;2.90;;
47713;SDS011;33475;46.614;13.888;2023-06-26T14:45:13;4.13;;;3.20;;
47713;SDS011;33475;46.614;13.888;2023-06-26T14:47:39;5.32;;;3.25;;
47713;SDS011;33475;46.614;13.888;2023-06-26T14:50:07;3.35;;;3.05;;
47713;SDS011;33475;46.614;13.888;2023-06-26T14:52:34;2.88;;;2.67;;